createdAt,value
2018-01-18T00:00:42.618Z,99476
2018-01-18T00:03:10.958Z,99480
2018-01-18T00:05:39.992Z,99473
2018-01-18T00:08:08.316Z,99460
2018-01-18T00:10:36.833Z,99464
2018-01-18T00:13:05.137Z,99462
2018-01-18T00:15:33.429Z,99456
2018-01-18T00:18:01.729Z,99449
2018-01-18T00:20:30.143Z,99451
2018-01-18T00:22:58.622Z,99443
2018-01-18T00:25:26.941Z,99449
2018-01-18T00:27:55.246Z,99448
2018-01-18T00:30:24.204Z,99453
2018-01-18T00:32:52.521Z,99440
2018-01-18T00:35:21.622Z,99454
2018-01-18T00:37:50.825Z,99441
2018-01-18T00:40:20.044Z,99439
2018-01-18T00:42:48.391Z,99425
2018-01-18T00:45:17.441Z,99417
2018-01-18T00:47:45.740Z,99421
2018-01-18T00:50:14.009Z,99418
2018-01-18T00:52:42.337Z,99420
2018-01-18T00:55:10.964Z,99414
2018-01-18T00:57:39.765Z,99421
2018-01-18T01:00:08.236Z,99407
2018-01-18T01:02:36.580Z,99408
2018-01-18T01:05:04.944Z,99407
2018-01-18T01:07:34.004Z,99404
2018-01-18T01:10:02.313Z,99392
2018-01-18T01:12:31.933Z,99390
2018-01-18T01:15:00.500Z,99391
2018-01-18T01:17:29.517Z,99400
2018-01-18T01:19:57.846Z,99377
2018-01-18T01:22:26.129Z,99386
2018-01-18T01:24:54.589Z,99363
2018-01-18T01:27:22.898Z,99371
2018-01-18T01:29:52.007Z,99367
2018-01-18T01:32:20.309Z,99371
2018-01-18T01:34:48.570Z,99364
2018-01-18T01:37:17.590Z,99369
2018-01-18T01:39:46.120Z,99368
2018-01-18T01:42:14.417Z,99362
2018-01-18T01:44:42.747Z,99365
2018-01-18T01:47:11.076Z,99356
2018-01-18T01:49:39.576Z,99359
2018-01-18T01:52:08.217Z,99354
2018-01-18T01:54:36.548Z,99367
2018-01-18T01:57:04.824Z,99349
2018-01-18T01:59:33.400Z,99174
2018-01-18T02:02:01.910Z,99356
2018-01-18T02:04:30.189Z,99352
2018-01-18T02:06:58.472Z,99342
2018-01-18T02:09:26.842Z,99344
2018-01-18T02:11:55.391Z,99342
2018-01-18T02:14:23.804Z,99329
2018-01-18T02:16:52.644Z,99330
2018-01-18T02:19:20.938Z,99326
2018-01-18T02:21:49.296Z,99322
2018-01-18T02:24:18.549Z,99322
2018-01-18T02:26:47.059Z,99314
2018-01-18T02:29:15.450Z,99271
2018-01-18T02:31:43.748Z,99298
2018-01-18T02:34:12.593Z,99296
2018-01-18T02:36:40.904Z,99288
2018-01-18T02:39:09.233Z,99286
2018-01-18T02:41:37.569Z,99278
2018-01-18T02:44:05.889Z,99266
2018-01-18T02:46:34.420Z,99269
2018-01-18T02:49:02.741Z,99277
2018-01-18T02:51:31.037Z,99269
2018-01-18T02:53:59.345Z,99260
2018-01-18T02:56:27.670Z,99266
2018-01-18T02:58:56.479Z,99258
2018-01-18T03:01:25.168Z,99253
2018-01-18T03:03:54.018Z,99253
2018-01-18T03:06:22.317Z,99248
2018-01-18T03:08:50.633Z,99241
2018-01-18T03:11:19.054Z,99247
2018-01-18T03:13:47.721Z,99227
2018-01-18T03:16:17.941Z,99236
2018-01-18T03:18:47.053Z,99213
2018-01-18T03:21:15.352Z,99213
2018-01-18T03:23:43.744Z,99214
2018-01-18T03:26:12.058Z,99204
2018-01-18T03:28:40.633Z,99192
2018-01-18T03:31:08.956Z,99156
2018-01-18T03:33:37.697Z,99171
2018-01-18T03:36:05.980Z,99173
2018-01-18T03:38:35.146Z,99171
2018-01-18T03:41:03.485Z,99174
2018-01-18T03:43:31.824Z,99176
2018-01-18T03:46:00.109Z,99178
2018-01-18T03:48:28.396Z,99139
2018-01-18T03:50:56.755Z,99162
2018-01-18T03:53:25.049Z,99156
2018-01-18T03:55:53.356Z,99140
2018-01-18T03:58:22.213Z,99151
2018-01-18T04:00:51.243Z,99137
2018-01-18T04:03:20.036Z,99136
2018-01-18T04:05:48.761Z,99130
2018-01-18T04:08:17.128Z,99128
2018-01-18T04:10:45.436Z,99125
2018-01-18T04:13:13.740Z,99104
2018-01-18T04:15:42.025Z,99097
2018-01-18T04:31:08.951Z,99058
2018-01-18T04:33:37.963Z,99048
2018-01-18T04:36:06.246Z,99037
2018-01-18T04:38:34.541Z,99018
2018-01-18T04:41:03.019Z,99019
2018-01-18T04:43:31.347Z,99014
2018-01-18T04:45:59.672Z,98996
2018-01-18T04:48:27.912Z,98992
2018-01-18T04:50:56.180Z,98977
2018-01-18T04:53:25.181Z,98976
2018-01-18T04:55:53.749Z,98967
2018-01-18T04:58:22.836Z,98971
2018-01-18T05:00:52.067Z,98962
2018-01-18T05:03:20.352Z,98950
2018-01-18T05:05:48.683Z,98946
2018-01-18T05:08:16.945Z,98939
2018-01-18T05:10:45.280Z,98929
2018-01-18T05:13:13.560Z,98928
2018-01-18T05:15:42.245Z,98920
2018-01-18T05:18:10.696Z,98914
2018-01-18T05:20:39.753Z,98896
2018-01-18T05:23:08.032Z,98898
2018-01-18T05:25:36.451Z,98877
2018-01-18T05:28:04.716Z,98883
2018-01-18T05:30:33.067Z,98877
2018-01-18T05:33:01.341Z,98874
2018-01-18T05:35:29.600Z,98856
2018-01-18T05:37:57.911Z,98843
2018-01-18T05:40:26.838Z,98823
2018-01-18T05:42:55.144Z,98815
2018-01-18T05:45:23.646Z,98802
2018-01-18T05:47:53.659Z,98806
2018-01-18T05:50:22.705Z,98806
2018-01-18T05:52:51.260Z,98797
2018-01-18T05:55:20.368Z,98785
2018-01-18T05:57:49.703Z,98749
2018-01-18T06:00:18.268Z,98743
2018-01-18T06:02:46.877Z,98737
2018-01-18T06:05:15.563Z,98748
2018-01-18T06:07:44.095Z,98729
2018-01-18T06:10:12.380Z,98733
2018-01-18T06:12:41.387Z,98715
2018-01-18T06:15:10.868Z,98712
2018-01-18T06:17:39.173Z,98688
2018-01-18T06:20:07.500Z,98668
2018-01-18T06:22:35.772Z,98655
2018-01-18T06:25:04.496Z,98666
2018-01-18T06:27:32.783Z,98646
2018-01-18T06:30:01.840Z,98637
2018-01-18T06:32:30.343Z,98624
2018-01-18T06:34:58.679Z,98616
2018-01-18T06:37:27.760Z,98618
2018-01-18T06:39:56.040Z,98599
2018-01-18T06:42:24.712Z,98594
2018-01-18T06:44:53.070Z,98580
2018-01-18T06:47:21.355Z,98569
2018-01-18T06:49:51.990Z,98566
2018-01-18T06:52:21.179Z,98559
2018-01-18T06:54:49.528Z,98549
2018-01-18T06:57:17.816Z,98527
2018-01-18T06:59:46.831Z,98512
2018-01-18T07:02:16.121Z,98507
2018-01-18T07:04:44.363Z,98501
2018-01-18T07:07:14.038Z,98481
2018-01-18T07:09:42.372Z,98468
2018-01-18T07:12:11.403Z,98455
2018-01-18T07:14:39.906Z,98442
2018-01-18T07:17:08.224Z,98413
2018-01-18T07:19:36.512Z,98390
2018-01-18T07:22:04.823Z,98370
2018-01-18T07:24:33.116Z,98356
2018-01-18T07:27:01.425Z,98360
2018-01-18T07:29:31.632Z,98340
2018-01-18T07:32:00.176Z,98333
2018-01-18T07:34:28.697Z,98332
2018-01-18T07:36:57.067Z,98314
2018-01-18T07:39:25.407Z,98289
2018-01-18T07:41:54.752Z,98282
2018-01-18T07:44:23.106Z,98268
2018-01-18T07:46:53.016Z,98256
2018-01-18T07:49:21.399Z,98242
2018-01-18T07:51:49.679Z,98236
2018-01-18T07:54:17.987Z,98227
2018-01-18T07:56:46.344Z,98201
2018-01-18T07:59:14.624Z,98197
2018-01-18T08:01:42.925Z,98183
2018-01-18T08:04:27.452Z,98175
2018-01-18T08:06:55.719Z,98166
2018-01-18T08:09:24.018Z,98157
2018-01-18T08:11:52.300Z,98148
2018-01-18T08:14:20.588Z,98135
2018-01-18T08:16:49.243Z,98115
2018-01-18T08:19:17.547Z,98098
2018-01-18T08:21:45.876Z,98077
2018-01-18T08:24:14.367Z,98059
2018-01-18T08:26:42.761Z,98040
2018-01-18T08:29:11.024Z,98017
2018-01-18T08:31:39.296Z,98009
2018-01-18T08:34:07.917Z,97999
2018-01-18T08:36:37.021Z,97976
2018-01-18T08:39:06.212Z,97958
2018-01-18T08:41:34.697Z,97943
2018-01-18T08:44:03.339Z,97923
2018-01-18T08:46:31.841Z,97902
2018-01-18T08:49:00.337Z,97875
2018-01-18T08:51:28.939Z,97866
2018-01-18T08:53:57.831Z,97850
2018-01-18T08:56:26.518Z,97838
2018-01-18T08:58:55.536Z,97835
2018-01-18T09:01:24.820Z,97822
2018-01-18T09:03:53.637Z,97783
2018-01-18T09:06:23.108Z,97784
2018-01-18T09:08:51.794Z,97783
2018-01-18T09:11:20.267Z,97785
2018-01-18T09:13:48.709Z,97768
2018-01-18T09:16:17.336Z,97739
2018-01-18T09:18:46.386Z,97725
2018-01-18T09:21:15.650Z,97714
2018-01-18T09:23:44.310Z,97691
2018-01-18T09:26:12.820Z,97678
2018-01-18T09:28:41.687Z,97662
2018-01-18T09:31:10.244Z,97647
2018-01-18T09:33:38.836Z,97647
2018-01-18T09:36:07.776Z,97623
2018-01-18T09:38:36.218Z,97582
2018-01-18T09:41:05.122Z,97624
2018-01-18T09:43:33.786Z,97603
2018-01-18T09:46:02.565Z,97596
2018-01-18T09:48:31.192Z,97581
2018-01-18T09:50:59.851Z,97575
2018-01-18T09:53:28.320Z,97561
2018-01-18T09:55:57.632Z,97555
2018-01-18T09:58:26.112Z,97541
2018-01-18T10:00:55.212Z,97529
2018-01-18T10:03:23.716Z,97513
2018-01-18T10:05:52.188Z,97504
2018-01-18T10:08:20.911Z,97495
2018-01-18T10:10:49.350Z,97495
2018-01-18T10:13:17.870Z,97483
2018-01-18T10:15:46.717Z,97472
2018-01-18T10:18:15.413Z,97466
2018-01-18T10:20:44.079Z,97445
2018-01-18T10:23:12.616Z,97440
2018-01-18T10:25:41.305Z,97426
2018-01-18T10:28:09.806Z,97429
2018-01-18T10:30:39.127Z,97421
2018-01-18T10:33:07.779Z,97425
2018-01-18T10:35:36.977Z,97391
2018-01-18T10:38:06.109Z,97392
2018-01-18T10:40:34.596Z,97383
2018-01-18T10:43:03.380Z,97365
2018-01-18T10:45:31.819Z,97359
2018-01-18T10:48:01.018Z,97353
2018-01-18T10:50:29.488Z,97340
2018-01-18T10:52:58.636Z,97322
2018-01-18T10:55:27.116Z,97323
2018-01-18T10:57:55.596Z,97326
2018-01-18T11:00:24.081Z,97335
2018-01-18T11:02:52.562Z,97331
2018-01-18T11:05:21.070Z,97318
2018-01-18T11:07:49.584Z,97299
2018-01-18T11:10:18.052Z,97282
2018-01-18T11:12:46.516Z,97272
2018-01-18T11:15:15.405Z,97274
2018-01-18T11:17:43.852Z,97262
2018-01-18T11:20:12.340Z,97259
2018-01-18T11:22:40.960Z,97259
2018-01-18T11:25:09.536Z,97249
2018-01-18T11:27:38.320Z,97264
2018-01-18T11:30:06.821Z,97256
2018-01-18T11:32:35.296Z,97223
2018-01-18T11:35:04.548Z,97225
2018-01-18T11:37:33.366Z,97226
2018-01-18T11:40:02.317Z,97217
2018-01-18T11:42:31.612Z,97224
2018-01-18T11:45:00.256Z,97219
2018-01-18T11:47:28.781Z,97240
2018-01-18T11:49:58.024Z,97241
2018-01-18T11:52:27.420Z,97230
2018-01-18T11:54:56.181Z,97222
2018-01-18T11:57:24.899Z,97228
2018-01-18T11:59:53.429Z,97223
2018-01-18T12:02:22.086Z,97216
2018-01-18T12:04:50.612Z,97232
2018-01-18T12:07:19.837Z,97223
2018-01-18T12:09:48.349Z,97230
2018-01-18T12:12:17.018Z,97221
2018-01-18T12:14:45.540Z,97217
2018-01-18T12:17:14.039Z,97209
2018-01-18T12:19:43.913Z,97209
2018-01-18T12:22:12.417Z,97222
2018-01-18T12:24:40.924Z,97219
2018-01-18T12:27:10.126Z,97235
2018-01-18T12:29:38.597Z,97234
2018-01-18T12:32:07.333Z,97237
2018-01-18T12:34:35.969Z,97245
2018-01-18T12:37:04.505Z,97240
2018-01-18T12:39:33.344Z,97252
2018-01-18T12:42:02.626Z,97254
2018-01-18T12:44:31.250Z,97264
2018-01-18T12:46:59.732Z,97262
2018-01-18T12:49:28.199Z,97266
2018-01-18T12:51:57.553Z,97270
2018-01-18T12:54:26.342Z,97282
2018-01-18T12:56:54.776Z,97284
2018-01-18T12:59:23.985Z,97293
2018-01-18T13:01:52.465Z,97302
2018-01-18T13:04:21.404Z,97292
2018-01-18T13:06:50.083Z,97305
2018-01-18T13:09:18.740Z,97304
2018-01-18T13:11:47.181Z,97312
2018-01-18T13:14:16.372Z,97317
2018-01-18T13:16:46.565Z,97366
2018-01-18T13:19:15.805Z,97340
2018-01-18T13:21:44.502Z,97356
2018-01-18T13:24:13.795Z,97359
2018-01-18T13:26:43.466Z,97375
2018-01-18T13:29:11.920Z,97388
2018-01-18T13:31:40.428Z,97396
2018-01-18T13:34:08.887Z,97408
2018-01-18T13:36:37.340Z,97402
2018-01-18T13:39:06.530Z,97444
2018-01-18T13:41:35.705Z,97453
2018-01-18T13:44:05.643Z,97467
2018-01-18T13:46:34.093Z,97505
2018-01-18T13:49:02.890Z,97537
2018-01-18T13:51:31.454Z,97571
2018-01-18T13:53:59.976Z,97589
2018-01-18T13:56:29.181Z,97611
2018-01-18T13:58:57.642Z,97637
2018-01-18T14:01:26.206Z,97663
2018-01-18T14:03:54.860Z,97674
2018-01-18T14:06:23.475Z,97696
2018-01-18T14:08:51.961Z,97714
2018-01-18T14:11:20.622Z,97743
2018-01-18T14:13:49.620Z,97769
2018-01-18T14:16:18.116Z,97797
2018-01-18T14:18:46.806Z,97810
2018-01-18T14:21:15.575Z,97834
2018-01-18T14:23:44.109Z,97853
2018-01-18T14:26:13.317Z,97880
2018-01-18T14:28:41.855Z,97902
2018-01-18T14:31:10.524Z,97922
2018-01-18T14:33:39.146Z,97952
2018-01-18T14:36:07.804Z,97960
2018-01-18T14:38:36.421Z,97997
2018-01-18T14:41:04.941Z,98018
2018-01-18T14:43:33.410Z,98036
2018-01-18T14:46:02.688Z,98068
2018-01-18T14:48:31.546Z,98029
2018-01-18T14:51:00.031Z,98097
2018-01-18T14:53:28.504Z,98122
2018-01-18T14:55:57.044Z,98144
2018-01-18T14:58:26.505Z,98155
2018-01-18T15:00:55.184Z,98178
2018-01-18T15:03:23.656Z,98204
2018-01-18T15:05:52.699Z,98223
2018-01-18T15:08:21.345Z,98241
2018-01-18T15:10:49.972Z,98269
2018-01-18T15:13:18.629Z,98266
2018-01-18T15:15:47.213Z,98308
2018-01-18T15:18:15.716Z,98322
2018-01-18T15:20:45.066Z,98339
2018-01-18T15:23:13.667Z,98356
2018-01-18T15:25:42.195Z,98384
2018-01-18T15:28:11.108Z,98397
2018-01-18T15:30:40.409Z,98412
2018-01-18T15:33:09.626Z,98431
2018-01-18T15:35:38.344Z,98432
2018-01-18T15:38:07.000Z,98464
2018-01-18T15:40:35.781Z,98485
2018-01-18T15:43:04.584Z,98488
2018-01-18T15:45:33.052Z,98512
2018-01-18T15:48:01.497Z,98530
2018-01-18T15:50:30.023Z,98547
2018-01-18T15:52:58.468Z,98548
2018-01-18T15:55:26.984Z,98566
2018-01-18T15:57:55.460Z,98594
2018-01-18T16:00:23.941Z,98602
2018-01-18T16:02:52.671Z,98613
2018-01-18T16:05:21.472Z,98624
2018-01-18T16:07:49.921Z,98632
2018-01-18T16:10:18.376Z,98641
2018-01-18T16:12:46.889Z,98656
2018-01-18T16:15:15.381Z,98674
2018-01-18T16:17:44.167Z,98696
2018-01-18T16:20:12.709Z,98698
2018-01-18T16:22:41.189Z,98707
2018-01-18T16:25:10.378Z,98724
2018-01-18T16:27:39.876Z,98731
2018-01-18T16:30:09.077Z,98740
2018-01-18T16:32:38.265Z,98746
2018-01-18T16:35:06.788Z,98750
2018-01-18T16:37:35.270Z,98761
2018-01-18T16:40:03.892Z,98779
2018-01-18T16:42:32.423Z,98793
2018-01-18T16:45:01.467Z,98804
2018-01-18T16:47:29.938Z,98803
2018-01-18T16:49:58.428Z,98824
2018-01-18T16:52:27.289Z,98828
2018-01-18T16:54:55.843Z,98833
2018-01-18T16:57:25.148Z,98846
2018-01-18T16:59:54.451Z,98840
2018-01-18T17:02:23.742Z,98865
2018-01-18T17:04:52.228Z,98862
2018-01-18T17:07:20.708Z,98872
2018-01-18T17:09:49.182Z,98883
2018-01-18T17:12:17.727Z,98886
2018-01-18T17:14:46.357Z,98890
2018-01-18T17:17:15.557Z,98899
2018-01-18T17:19:44.056Z,98903
2018-01-18T17:22:12.776Z,98910
2018-01-18T17:24:41.364Z,98911
2018-01-18T17:27:10.089Z,98917
2018-01-18T17:29:39.390Z,98928
2018-01-18T17:32:08.896Z,98923
2018-01-18T17:34:38.393Z,98929
2018-01-18T17:37:06.876Z,98930
2018-01-18T17:39:35.336Z,98897
2018-01-18T17:42:03.849Z,98980
2018-01-18T17:44:33.040Z,98941
2018-01-18T17:47:01.794Z,98951
2018-01-18T17:49:30.258Z,98957
2018-01-18T17:51:59.168Z,98960
2018-01-18T17:54:27.756Z,98957
2018-01-18T17:56:56.265Z,98965
2018-01-18T17:59:25.233Z,98972
2018-01-18T18:01:53.823Z,98982
2018-01-18T18:04:22.700Z,98992
2018-01-18T18:06:51.239Z,98985
2018-01-18T18:09:19.845Z,99000
2018-01-18T18:11:48.425Z,98991
2018-01-18T18:14:17.139Z,99010
2018-01-18T18:16:46.555Z,99004
2018-01-18T18:19:15.016Z,99015
2018-01-18T18:21:43.889Z,99021
2018-01-18T18:24:12.540Z,99016
2018-01-18T18:26:41.825Z,99022
2018-01-18T18:29:10.357Z,99027
2018-01-18T18:31:38.974Z,99037
2018-01-18T18:34:07.652Z,99025
2018-01-18T18:36:36.130Z,99028
2018-01-18T18:39:05.612Z,99036
2018-01-18T18:41:34.109Z,99037
2018-01-18T18:44:03.446Z,99028
2018-01-18T18:46:33.400Z,99048
2018-01-18T18:49:01.896Z,99039
2018-01-18T18:51:30.369Z,99042
2018-01-18T18:53:59.284Z,99050
2018-01-18T18:56:27.782Z,99061
2018-01-18T18:58:56.449Z,99073
2018-01-18T19:01:25.056Z,99061
2018-01-18T19:03:53.885Z,99052
2018-01-18T19:06:22.614Z,99081
2018-01-18T19:08:51.160Z,99086
2018-01-18T19:11:19.847Z,99092
2018-01-18T19:13:48.660Z,99088
2018-01-18T19:16:17.158Z,99101
2018-01-18T19:18:46.941Z,99104
2018-01-18T19:21:15.753Z,99106
2018-01-18T19:23:44.334Z,99111
2018-01-18T19:26:12.813Z,99109
2018-01-18T19:28:41.358Z,99121
2018-01-18T19:31:09.873Z,99120
2018-01-18T19:33:38.561Z,99125
2018-01-18T19:36:07.249Z,99129
2018-01-18T19:38:36.152Z,99116
2018-01-18T19:41:04.878Z,99128
2018-01-18T19:43:33.753Z,99132
2018-01-18T19:46:04.345Z,99125
2018-01-18T19:48:33.190Z,99117
2018-01-18T19:51:02.550Z,99144
2018-01-18T19:53:31.347Z,99130
2018-01-18T19:55:59.931Z,99141
2018-01-18T19:58:28.387Z,99134
2018-01-18T20:00:56.865Z,99150
2018-01-18T20:03:25.562Z,99151
2018-01-18T20:05:54.024Z,99148
2018-01-18T20:08:23.036Z,99142
2018-01-18T20:10:51.509Z,99146
2018-01-18T20:13:20.989Z,99144
2018-01-18T20:15:49.524Z,99152
2018-01-18T20:18:18.001Z,99156
2018-01-18T20:20:46.873Z,99170
2018-01-18T20:23:15.583Z,99158
2018-01-18T20:25:44.069Z,99163
2018-01-18T20:28:12.726Z,99163
2018-01-18T20:30:41.416Z,99177
2018-01-18T20:33:10.328Z,99182
2018-01-18T20:35:38.995Z,99184
2018-01-18T20:38:07.781Z,99186
2018-01-18T20:40:36.386Z,99187
2018-01-18T20:43:05.049Z,99198
2018-01-18T20:45:34.094Z,99206
2018-01-18T20:48:02.804Z,99209
2018-01-18T20:50:31.359Z,99207
2018-01-18T20:52:59.825Z,99212
2018-01-18T20:55:28.327Z,99218
2018-01-18T20:57:58.726Z,99222
2018-01-18T21:00:27.189Z,99230
2018-01-18T21:02:55.670Z,99230
2018-01-18T21:05:24.144Z,99223
2018-01-18T21:07:52.729Z,99224
2018-01-18T21:10:21.204Z,99226
2018-01-18T21:12:49.878Z,99214
2018-01-18T21:15:18.376Z,99232
2018-01-18T21:17:47.164Z,99237
2018-01-18T21:20:15.625Z,99243
2018-01-18T21:22:44.843Z,99239
2018-01-18T21:25:13.456Z,99241
2018-01-18T21:27:42.005Z,99239
2018-01-18T21:30:10.601Z,99233
2018-01-18T21:32:39.133Z,99245
2018-01-18T21:35:07.894Z,99244
2018-01-18T21:37:36.342Z,99253
2018-01-18T21:40:05.133Z,99255
2018-01-18T21:42:33.620Z,99254
2018-01-18T21:45:02.424Z,99258
2018-01-18T21:47:30.871Z,99247
2018-01-18T21:49:59.499Z,99261
2018-01-18T21:52:28.064Z,99267
2018-01-18T21:54:56.765Z,99265
2018-01-18T21:57:25.289Z,99256
2018-01-18T21:59:54.149Z,99264
2018-01-18T22:02:22.826Z,99262
2018-01-18T22:04:51.807Z,99279
2018-01-18T22:07:20.325Z,99274
2018-01-18T22:09:49.090Z,99275
2018-01-18T22:12:17.572Z,99286
2018-01-18T22:14:46.204Z,99284
2018-01-18T22:17:15.412Z,99278
2018-01-18T22:19:44.041Z,99280
2018-01-18T22:22:13.182Z,99294
2018-01-18T22:24:42.398Z,99288
2018-01-18T22:27:11.892Z,99293
2018-01-18T22:29:40.676Z,99291
2018-01-18T22:32:09.979Z,99286
2018-01-18T22:34:39.201Z,99284
2018-01-18T22:37:07.712Z,99280
2018-01-18T22:39:36.378Z,99286
2018-01-18T22:42:05.008Z,99285
2018-01-18T22:44:33.636Z,99278
2018-01-18T22:47:02.224Z,99292
2018-01-18T22:49:30.733Z,99304
2018-01-18T22:51:59.932Z,99300
2018-01-18T22:54:28.410Z,99292
2018-01-18T22:56:57.142Z,99300
2018-01-18T22:59:26.346Z,99308
2018-01-18T23:01:54.931Z,99289
2018-01-18T23:04:24.172Z,99297
2018-01-18T23:06:52.870Z,99297
2018-01-18T23:09:22.118Z,99311
2018-01-18T23:11:51.338Z,99314
2018-01-18T23:14:19.928Z,99311
2018-01-18T23:16:48.616Z,99315
2018-01-18T23:19:17.560Z,99316
2018-01-18T23:21:46.213Z,99328
2018-01-18T23:24:15.007Z,99329
2018-01-18T23:26:43.500Z,99327
2018-01-18T23:29:12.005Z,99320
2018-01-18T23:31:41.196Z,99331
2018-01-18T23:34:09.924Z,99336
2018-01-18T23:36:39.130Z,99331
2018-01-18T23:39:07.737Z,99329
2018-01-18T23:41:36.397Z,99328
2018-01-18T23:44:05.097Z,99326
2018-01-18T23:46:33.700Z,99327
2018-01-18T23:49:02.521Z,99339
2018-01-18T23:51:31.036Z,99337
2018-01-18T23:53:59.750Z,99337
2018-01-18T23:56:28.408Z,99340
2018-01-18T23:58:57.608Z,99352
